sensor_id;sensor_type;location;lat;lon;timestamp;temperature;humidity
10722;DHT22;5412;59.450;18.124;2023-10-13T00:02:08;8.60;99.90
10722;DHT22;5412;59.450;18.124;2023-10-13T00:04:34;8.50;99.90
10722;DHT22;5412;59.450;18.124;2023-10-13T00:07:02;8.50;99.90
10722;DHT22;5412;59.450;18.124;2023-10-13T00:09:28;8.40;99.90
10722;DHT22;5412;59.450;18.124;2023-10-13T00:12:00;8.40;99.90
10722;DHT22;5412;59.450;18.124;2023-10-13T00:14:27;8.50;99.90
10722;DHT22;5412;59.450;18.124;2023-10-13T00:17:03;8.50;99.90
10722;DHT22;5412;59.450;18.124;2023-10-13T00:19:31;8.50;99.90
10722;DHT22;5412;59.450;18.124;2023-10-13T00:22:09;8.60;99.90
10722;DHT22;5412;59.450;18.124;2023-10-13T00:24:39;8.50;99.90
10722;DHT22;5412;59.450;18.124;2023-10-13T00:27:13;8.50;99.90
10722;DHT22;5412;59.450;18.124;2023-10-13T00:29:57;8.60;99.90
10722;DHT22;5412;59.450;18.124;2023-10-13T00:32:46;8.60;99.90
10722;DHT22;5412;59.450;18.124;2023-10-13T00:35:17;8.50;99.90
10722;DHT22;5412;59.450;18.124;2023-10-13T00:38:02;8.40;99.90
10722;DHT22;5412;59.450;18.124;2023-10-13T00:40:43;8.40;99.90
10722;DHT22;5412;59.450;18.124;2023-10-13T00:43:10;8.30;99.90
10722;DHT22;5412;59.450;18.124;2023-10-13T00:45:58;8.40;99.90
10722;DHT22;5412;59.450;18.124;2023-10-13T00:48:32;8.40;99.90
10722;DHT22;5412;59.450;18.124;2023-10-13T00:51:06;8.50;99.90
10722;DHT22;5412;59.450;18.124;2023-10-13T00:53:37;8.50;99.90
10722;DHT22;5412;59.450;18.124;2023-10-13T00:56:06;8.50;99.90
10722;DHT22;5412;59.450;18.124;2023-10-13T00:58:45;8.50;99.90
10722;DHT22;5412;59.450;18.124;2023-10-13T01:01:16;8.30;99.90
10722;DHT22;5412;59.450;18.124;2023-10-13T01:03:49;8.20;99.90
10722;DHT22;5412;59.450;18.124;2023-10-13T01:06:16;8.20;99.90
10722;DHT22;5412;59.450;18.124;2023-10-13T01:08:48;8.10;99.90
10722;DHT22;5412;59.450;18.124;2023-10-13T01:11:18;8.10;99.90
10722;DHT22;5412;59.450;18.124;2023-10-13T01:13:43;7.90;99.90
10722;DHT22;5412;59.450;18.124;2023-10-13T01:16:09;7.80;99.90
10722;DHT22;5412;59.450;18.124;2023-10-13T01:18:36;7.90;99.90
10722;DHT22;5412;59.450;18.124;2023-10-13T01:21:17;7.80;99.90
10722;DHT22;5412;59.450;18.124;2023-10-13T01:23:46;7.80;99.90
10722;DHT22;5412;59.450;18.124;2023-10-13T01:26:14;7.90;99.90
10722;DHT22;5412;59.450;18.124;2023-10-13T01:28:47;7.80;99.90
10722;DHT22;5412;59.450;18.124;2023-10-13T01:31:13;7.80;99.90
10722;DHT22;5412;59.450;18.124;2023-10-13T01:33:50;7.70;99.90
10722;DHT22;5412;59.450;18.124;2023-10-13T01:36:20;7.80;99.90
10722;DHT22;5412;59.450;18.124;2023-10-13T01:38:46;7.90;99.90
10722;DHT22;5412;59.450;18.124;2023-10-13T01:41:12;7.80;99.90
10722;DHT22;5412;59.450;18.124;2023-10-13T01:43:39;7.70;99.90
10722;DHT22;5412;59.450;18.124;2023-10-13T01:46:05;7.60;99.90
10722;DHT22;5412;59.450;18.124;2023-10-13T01:48:30;7.70;99.90
10722;DHT22;5412;59.450;18.124;2023-10-13T01:51:04;7.70;99.90
10722;DHT22;5412;59.450;18.124;2023-10-13T01:53:31;7.70;99.90
10722;DHT22;5412;59.450;18.124;2023-10-13T01:55:57;7.70;99.90
10722;DHT22;5412;59.450;18.124;2023-10-13T01:58:23;7.70;99.90
10722;DHT22;5412;59.450;18.124;2023-10-13T02:00:51;7.70;99.90
10722;DHT22;5412;59.450;18.124;2023-10-13T02:03:18;7.80;99.90
10722;DHT22;5412;59.450;18.124;2023-10-13T02:05:45;7.70;99.90
10722;DHT22;5412;59.450;18.124;2023-10-13T02:08:18;7.80;99.90
10722;DHT22;5412;59.450;18.124;2023-10-13T02:10:57;7.80;99.90
10722;DHT22;5412;59.450;18.124;2023-10-13T02:13:26;7.80;99.90
10722;DHT22;5412;59.450;18.124;2023-10-13T02:15:56;7.70;99.90
10722;DHT22;5412;59.450;18.124;2023-10-13T02:18:23;7.80;99.90
10722;DHT22;5412;59.450;18.124;2023-10-13T02:20:53;7.80;99.90
10722;DHT22;5412;59.450;18.124;2023-10-13T02:23:25;7.80;99.90
10722;DHT22;5412;59.450;18.124;2023-10-13T02:25:55;7.80;99.90
10722;DHT22;5412;59.450;18.124;2023-10-13T02:28:28;7.80;99.90
10722;DHT22;5412;59.450;18.124;2023-10-13T02:31:02;7.70;99.90
10722;DHT22;5412;59.450;18.124;2023-10-13T02:33:29;7.70;99.90
10722;DHT22;5412;59.450;18.124;2023-10-13T02:36:03;7.70;99.90
10722;DHT22;5412;59.450;18.124;2023-10-13T02:38:31;7.80;99.90
10722;DHT22;5412;59.450;18.124;2023-10-13T02:41:18;7.80;99.90
10722;DHT22;5412;59.450;18.124;2023-10-13T02:43:52;7.70;99.90
10722;DHT22;5412;59.450;18.124;2023-10-13T02:46:19;7.70;99.90
10722;DHT22;5412;59.450;18.124;2023-10-13T02:48:47;7.70;99.90
10722;DHT22;5412;59.450;18.124;2023-10-13T02:51:19;7.60;99.90
10722;DHT22;5412;59.450;18.124;2023-10-13T02:53:56;7.70;99.90
10722;DHT22;5412;59.450;18.124;2023-10-13T02:56:29;7.70;99.90
10722;DHT22;5412;59.450;18.124;2023-10-13T02:58:55;7.60;99.90
10722;DHT22;5412;59.450;18.124;2023-10-13T03:01:31;7.60;99.90
10722;DHT22;5412;59.450;18.124;2023-10-13T03:04:04;7.60;99.90
10722;DHT22;5412;59.450;18.124;2023-10-13T03:06:35;7.70;99.90
10722;DHT22;5412;59.450;18.124;2023-10-13T03:09:09;7.70;99.90
10722;DHT22;5412;59.450;18.124;2023-10-13T03:11:45;7.70;99.90
10722;DHT22;5412;59.450;18.124;2023-10-13T03:14:23;7.70;99.90
10722;DHT22;5412;59.450;18.124;2023-10-13T03:16:56;7.70;99.90
10722;DHT22;5412;59.450;18.124;2023-10-13T03:19:32;7.70;99.90
10722;DHT22;5412;59.450;18.124;2023-10-13T03:22:04;7.70;99.90
10722;DHT22;5412;59.450;18.124;2023-10-13T03:24:52;7.70;99.90
10722;DHT22;5412;59.450;18.124;2023-10-13T03:27:19;7.70;99.90
10722;DHT22;5412;59.450;18.124;2023-10-13T03:30:05;7.70;99.90
10722;DHT22;5412;59.450;18.124;2023-10-13T03:32:36;7.60;99.90
10722;DHT22;5412;59.450;18.124;2023-10-13T03:35:09;7.70;99.90
10722;DHT22;5412;59.450;18.124;2023-10-13T03:37:54;7.60;99.90
10722;DHT22;5412;59.450;18.124;2023-10-13T03:40:21;7.50;99.90
10722;DHT22;5412;59.450;18.124;2023-10-13T03:42:51;7.40;99.90
10722;DHT22;5412;59.450;18.124;2023-10-13T03:45:40;7.50;99.90
10722;DHT22;5412;59.450;18.124;2023-10-13T03:48:09;7.50;99.90
10722;DHT22;5412;59.450;18.124;2023-10-13T03:50:40;7.40;99.90
10722;DHT22;5412;59.450;18.124;2023-10-13T03:53:26;7.50;99.90
10722;DHT22;5412;59.450;18.124;2023-10-13T03:55:51;7.40;99.90
10722;DHT22;5412;59.450;18.124;2023-10-13T03:58:36;7.40;99.90
10722;DHT22;5412;59.450;18.124;2023-10-13T04:01:04;7.40;99.90
10722;DHT22;5412;59.450;18.124;2023-10-13T04:03:35;7.50;99.90
10722;DHT22;5412;59.450;18.124;2023-10-13T04:06:05;7.50;99.90
10722;DHT22;5412;59.450;18.124;2023-10-13T04:08:41;7.60;99.90
10722;DHT22;5412;59.450;18.124;2023-10-13T04:11:32;7.40;99.90
10722;DHT22;5412;59.450;18.124;2023-10-13T04:14:24;7.40;99.90
10722;DHT22;5412;59.450;18.124;2023-10-13T04:17:09;7.40;99.90
10722;DHT22;5412;59.450;18.124;2023-10-13T04:19:41;7.40;99.90
10722;DHT22;5412;59.450;18.124;2023-10-13T04:22:26;7.40;99.90
10722;DHT22;5412;59.450;18.124;2023-10-13T04:25:15;7.30;99.90
10722;DHT22;5412;59.450;18.124;2023-10-13T04:28:00;7.30;99.90
10722;DHT22;5412;59.450;18.124;2023-10-13T04:30:41;7.20;99.90
10722;DHT22;5412;59.450;18.124;2023-10-13T04:33:30;7.20;99.90
10722;DHT22;5412;59.450;18.124;2023-10-13T04:36:05;7.20;99.90
10722;DHT22;5412;59.450;18.124;2023-10-13T04:38:51;7.10;99.90
10722;DHT22;5412;59.450;18.124;2023-10-13T04:41:37;7.30;99.90
10722;DHT22;5412;59.450;18.124;2023-10-13T04:44:22;7.40;99.90
10722;DHT22;5412;59.450;18.124;2023-10-13T04:46:54;7.40;99.90
10722;DHT22;5412;59.450;18.124;2023-10-13T04:49:35;7.40;99.90
10722;DHT22;5412;59.450;18.124;2023-10-13T04:52:15;7.30;99.90
10722;DHT22;5412;59.450;18.124;2023-10-13T04:55:00;7.20;99.90
10722;DHT22;5412;59.450;18.124;2023-10-13T04:57:35;7.00;99.90
10722;DHT22;5412;59.450;18.124;2023-10-13T05:00:20;7.00;99.90
10722;DHT22;5412;59.450;18.124;2023-10-13T05:02:46;6.90;99.90
10722;DHT22;5412;59.450;18.124;2023-10-13T05:05:21;6.90;99.90
10722;DHT22;5412;59.450;18.124;2023-10-13T05:08:07;6.80;99.90
10722;DHT22;5412;59.450;18.124;2023-10-13T05:10:51;6.90;99.90
10722;DHT22;5412;59.450;18.124;2023-10-13T05:13:35;7.00;99.90
10722;DHT22;5412;59.450;18.124;2023-10-13T05:16:19;7.10;99.90
10722;DHT22;5412;59.450;18.124;2023-10-13T05:19:03;7.20;99.90
10722;DHT22;5412;59.450;18.124;2023-10-13T05:21:47;7.20;99.90
10722;DHT22;5412;59.450;18.124;2023-10-13T05:24:32;7.10;99.90
10722;DHT22;5412;59.450;18.124;2023-10-13T05:27:16;7.10;99.90
10722;DHT22;5412;59.450;18.124;2023-10-13T05:30:00;7.00;99.90
10722;DHT22;5412;59.450;18.124;2023-10-13T05:32:44;7.00;99.90
10722;DHT22;5412;59.450;18.124;2023-10-13T05:35:31;7.00;99.90
10722;DHT22;5412;59.450;18.124;2023-10-13T05:38:15;6.90;99.90
10722;DHT22;5412;59.450;18.124;2023-10-13T05:41:04;6.90;99.90
10722;DHT22;5412;59.450;18.124;2023-10-13T05:43:48;6.70;99.90
10722;DHT22;5412;59.450;18.124;2023-10-13T05:46:33;6.80;99.90
10722;DHT22;5412;59.450;18.124;2023-10-13T05:49:08;6.80;99.90
10722;DHT22;5412;59.450;18.124;2023-10-13T05:51:52;6.80;99.90
10722;DHT22;5412;59.450;18.124;2023-10-13T05:54:18;6.90;99.90
10722;DHT22;5412;59.450;18.124;2023-10-13T05:56:49;6.90;99.90
10722;DHT22;5412;59.450;18.124;2023-10-13T05:59:35;6.90;99.90
10722;DHT22;5412;59.450;18.124;2023-10-13T06:02:21;6.90;99.90
10722;DHT22;5412;59.450;18.124;2023-10-13T06:05:10;6.90;99.90
10722;DHT22;5412;59.450;18.124;2023-10-13T06:07:55;6.90;99.90
10722;DHT22;5412;59.450;18.124;2023-10-13T06:10:41;7.00;99.90
10722;DHT22;5412;59.450;18.124;2023-10-13T06:13:25;6.90;99.90
10722;DHT22;5412;59.450;18.124;2023-10-13T06:16:14;7.10;99.90
10722;DHT22;5412;59.450;18.124;2023-10-13T06:18:58;7.30;99.90
10722;DHT22;5412;59.450;18.124;2023-10-13T06:21:43;7.20;99.90
10722;DHT22;5412;59.450;18.124;2023-10-13T06:24:27;7.20;99.90
10722;DHT22;5412;59.450;18.124;2023-10-13T06:27:16;7.40;99.90
10722;DHT22;5412;59.450;18.124;2023-10-13T06:30:04;7.40;99.90
10722;DHT22;5412;59.450;18.124;2023-10-13T06:32:32;7.50;99.90
10722;DHT22;5412;59.450;18.124;2023-10-13T06:34:59;7.60;99.90
10722;DHT22;5412;59.450;18.124;2023-10-13T06:37:30;7.50;99.90
10722;DHT22;5412;59.450;18.124;2023-10-13T06:39:59;7.50;99.90
10722;DHT22;5412;59.450;18.124;2023-10-13T06:42:32;7.40;99.90
10722;DHT22;5412;59.450;18.124;2023-10-13T06:45:00;7.30;99.90
10722;DHT22;5412;59.450;18.124;2023-10-13T06:47:37;7.40;99.90
10722;DHT22;5412;59.450;18.124;2023-10-13T06:50:09;7.50;99.90
10722;DHT22;5412;59.450;18.124;2023-10-13T06:52:45;7.60;99.90
10722;DHT22;5412;59.450;18.124;2023-10-13T06:55:11;7.80;99.90
10722;DHT22;5412;59.450;18.124;2023-10-13T06:57:46;7.90;99.90
10722;DHT22;5412;59.450;18.124;2023-10-13T07:00:14;7.80;99.90
10722;DHT22;5412;59.450;18.124;2023-10-13T07:02:59;7.80;99.90
10722;DHT22;5412;59.450;18.124;2023-10-13T07:05:39;7.90;99.90
10722;DHT22;5412;59.450;18.124;2023-10-13T07:08:09;8.00;99.90
10722;DHT22;5412;59.450;18.124;2023-10-13T07:10:38;8.20;99.90
10722;DHT22;5412;59.450;18.124;2023-10-13T07:13:13;8.20;99.90
10722;DHT22;5412;59.450;18.124;2023-10-13T07:15:40;8.30;99.90
10722;DHT22;5412;59.450;18.124;2023-10-13T07:18:12;8.20;99.90
10722;DHT22;5412;59.450;18.124;2023-10-13T07:20:39;8.20;99.90
10722;DHT22;5412;59.450;18.124;2023-10-13T07:23:10;8.30;99.90
10722;DHT22;5412;59.450;18.124;2023-10-13T07:25:53;8.40;99.90
10722;DHT22;5412;59.450;18.124;2023-10-13T07:28:29;8.40;99.90
10722;DHT22;5412;59.450;18.124;2023-10-13T07:30:57;8.50;99.90
10722;DHT22;5412;59.450;18.124;2023-10-13T07:33:25;8.50;99.90
10722;DHT22;5412;59.450;18.124;2023-10-13T07:36:08;8.60;99.90
10722;DHT22;5412;59.450;18.124;2023-10-13T07:38:42;8.60;99.90
10722;DHT22;5412;59.450;18.124;2023-10-13T07:41:10;8.70;99.90
10722;DHT22;5412;59.450;18.124;2023-10-13T07:43:41;8.80;99.90
10722;DHT22;5412;59.450;18.124;2023-10-13T07:46:08;8.80;99.90
10722;DHT22;5412;59.450;18.124;2023-10-13T07:48:40;8.90;99.90
10722;DHT22;5412;59.450;18.124;2023-10-13T07:51:08;9.00;99.90
10722;DHT22;5412;59.450;18.124;2023-10-13T07:53:45;9.10;99.90
10722;DHT22;5412;59.450;18.124;2023-10-13T07:56:14;9.00;99.90
10722;DHT22;5412;59.450;18.124;2023-10-13T07:58:44;9.10;99.90
10722;DHT22;5412;59.450;18.124;2023-10-13T08:01:31;9.10;99.90
10722;DHT22;5412;59.450;18.124;2023-10-13T08:03:58;9.20;99.90
10722;DHT22;5412;59.450;18.124;2023-10-13T08:06:41;9.20;99.90
10722;DHT22;5412;59.450;18.124;2023-10-13T08:09:08;9.30;99.90
10722;DHT22;5412;59.450;18.124;2023-10-13T08:11:37;9.30;99.90
10722;DHT22;5412;59.450;18.124;2023-10-13T08:14:05;9.40;99.90
10722;DHT22;5412;59.450;18.124;2023-10-13T08:16:38;9.40;99.90
10722;DHT22;5412;59.450;18.124;2023-10-13T08:19:12;9.40;99.90
10722;DHT22;5412;59.450;18.124;2023-10-13T08:21:41;9.50;99.90
10722;DHT22;5412;59.450;18.124;2023-10-13T08:24:15;9.50;99.90
10722;DHT22;5412;59.450;18.124;2023-10-13T08:26:42;9.50;99.90
10722;DHT22;5412;59.450;18.124;2023-10-13T08:29:28;9.50;99.90
10722;DHT22;5412;59.450;18.124;2023-10-13T08:31:54;9.50;99.90
10722;DHT22;5412;59.450;18.124;2023-10-13T08:34:29;9.50;99.90
10722;DHT22;5412;59.450;18.124;2023-10-13T08:37:07;9.70;99.90
10722;DHT22;5412;59.450;18.124;2023-10-13T08:39:53;9.80;99.90
10722;DHT22;5412;59.450;18.124;2023-10-13T08:42:32;9.80;99.90
10722;DHT22;5412;59.450;18.124;2023-10-13T08:47:57;9.90;99.90
10722;DHT22;5412;59.450;18.124;2023-10-13T08:50:50;10.00;99.90
10722;DHT22;5412;59.450;18.124;2023-10-13T08:53:26;10.10;99.90
10722;DHT22;5412;59.450;18.124;2023-10-13T08:56:08;10.10;99.90
10722;DHT22;5412;59.450;18.124;2023-10-13T08:58:42;10.20;99.90
10722;DHT22;5412;59.450;18.124;2023-10-13T09:04:17;10.20;99.90
10722;DHT22;5412;59.450;18.124;2023-10-13T09:07:03;10.30;99.90
10722;DHT22;5412;59.450;18.124;2023-10-13T09:09:46;10.30;99.90
10722;DHT22;5412;59.450;18.124;2023-10-13T09:12:29;10.20;99.90
10722;DHT22;5412;59.450;18.124;2023-10-13T09:14:58;10.10;99.90
10722;DHT22;5412;59.450;18.124;2023-10-13T09:17:24;10.20;99.90
10722;DHT22;5412;59.450;18.124;2023-10-13T09:20:00;10.30;99.90
10722;DHT22;5412;59.450;18.124;2023-10-13T09:22:45;10.50;99.90
10722;DHT22;5412;59.450;18.124;2023-10-13T09:25:22;10.50;99.90
10722;DHT22;5412;59.450;18.124;2023-10-13T09:27:49;10.60;99.90
10722;DHT22;5412;59.450;18.124;2023-10-13T09:30:18;10.70;99.90
10722;DHT22;5412;59.450;18.124;2023-10-13T09:33:07;10.70;99.90
10722;DHT22;5412;59.450;18.124;2023-10-13T09:35:34;10.80;99.90
10722;DHT22;5412;59.450;18.124;2023-10-13T09:38:03;10.90;99.90
10722;DHT22;5412;59.450;18.124;2023-10-13T09:40:31;10.80;99.90
10722;DHT22;5412;59.450;18.124;2023-10-13T09:43:12;10.80;99.90
10722;DHT22;5412;59.450;18.124;2023-10-13T09:45:41;10.90;99.90
10722;DHT22;5412;59.450;18.124;2023-10-13T09:48:47;11.10;99.90
10722;DHT22;5412;59.450;18.124;2023-10-13T09:51:17;11.10;99.90
10722;DHT22;5412;59.450;18.124;2023-10-13T09:54:00;11.10;99.90
10722;DHT22;5412;59.450;18.124;2023-10-13T09:56:42;11.10;99.90
10722;DHT22;5412;59.450;18.124;2023-10-13T09:59:23;11.20;99.90
10722;DHT22;5412;59.450;18.124;2023-10-13T10:01:51;11.20;99.90
10722;DHT22;5412;59.450;18.124;2023-10-13T10:04:23;11.20;99.90
10722;DHT22;5412;59.450;18.124;2023-10-13T10:07:07;11.30;99.90
10722;DHT22;5412;59.450;18.124;2023-10-13T10:09:34;11.50;99.90
10722;DHT22;5412;59.450;18.124;2023-10-13T10:17:13;11.60;99.90
10722;DHT22;5412;59.450;18.124;2023-10-13T10:19:53;11.50;99.90
10722;DHT22;5412;59.450;18.124;2023-10-13T10:25:09;11.60;99.90
10722;DHT22;5412;59.450;18.124;2023-10-13T10:27:58;11.50;99.90
10722;DHT22;5412;59.450;18.124;2023-10-13T10:30:26;11.40;99.90
10722;DHT22;5412;59.450;18.124;2023-10-13T10:32:55;11.50;99.90
10722;DHT22;5412;59.450;18.124;2023-10-13T10:35:25;11.50;99.90
10722;DHT22;5412;59.450;18.124;2023-10-13T10:38:14;11.50;99.90
10722;DHT22;5412;59.450;18.124;2023-10-13T10:40:50;11.60;99.90
10722;DHT22;5412;59.450;18.124;2023-10-13T10:46:29;11.70;99.90
10722;DHT22;5412;59.450;18.124;2023-10-13T10:48:57;11.80;99.90
10722;DHT22;5412;59.450;18.124;2023-10-13T10:51:27;11.90;99.90
10722;DHT22;5412;59.450;18.124;2023-10-13T10:53:57;11.60;99.90
10722;DHT22;5412;59.450;18.124;2023-10-13T10:56:25;11.70;99.90
10722;DHT22;5412;59.450;18.124;2023-10-13T10:59:02;11.80;99.90
10722;DHT22;5412;59.450;18.124;2023-10-13T11:01:32;11.90;99.90
10722;DHT22;5412;59.450;18.124;2023-10-13T11:04:06;12.00;99.90
10722;DHT22;5412;59.450;18.124;2023-10-13T11:09:13;12.00;99.90
10722;DHT22;5412;59.450;18.124;2023-10-13T11:11:56;11.90;99.90
10722;DHT22;5412;59.450;18.124;2023-10-13T11:14:29;11.90;99.90
10722;DHT22;5412;59.450;18.124;2023-10-13T11:16:56;11.90;99.90
10722;DHT22;5412;59.450;18.124;2023-10-13T11:19:40;11.90;99.90
10722;DHT22;5412;59.450;18.124;2023-10-13T11:22:20;11.90;99.90
10722;DHT22;5412;59.450;18.124;2023-10-13T11:24:58;11.90;99.90
10722;DHT22;5412;59.450;18.124;2023-10-13T11:27:40;11.90;99.90
10722;DHT22;5412;59.450;18.124;2023-10-13T11:30:18;11.90;99.90
10722;DHT22;5412;59.450;18.124;2023-10-13T11:33:05;12.00;99.90
10722;DHT22;5412;59.450;18.124;2023-10-13T11:35:34;12.20;99.90
10722;DHT22;5412;59.450;18.124;2023-10-13T11:38:23;12.20;99.90
10722;DHT22;5412;59.450;18.124;2023-10-13T11:40:57;12.20;99.90
10722;DHT22;5412;59.450;18.124;2023-10-13T11:46:13;12.00;99.90
10722;DHT22;5412;59.450;18.124;2023-10-13T11:48:45;12.20;99.90
10722;DHT22;5412;59.450;18.124;2023-10-13T11:51:20;12.30;99.90
10722;DHT22;5412;59.450;18.124;2023-10-13T11:53:58;12.30;99.90
10722;DHT22;5412;59.450;18.124;2023-10-13T11:56:24;12.30;99.90
10722;DHT22;5412;59.450;18.124;2023-10-13T11:58:50;12.20;99.90
10722;DHT22;5412;59.450;18.124;2023-10-13T12:01:18;12.20;99.90
10722;DHT22;5412;59.450;18.124;2023-10-13T12:03:45;12.20;99.90
10722;DHT22;5412;59.450;18.124;2023-10-13T12:06:31;12.10;99.90
10722;DHT22;5412;59.450;18.124;2023-10-13T12:09:18;12.10;99.90
10722;DHT22;5412;59.450;18.124;2023-10-13T12:14:14;12.30;99.90
10722;DHT22;5412;59.450;18.124;2023-10-13T12:17:16;12.30;99.90
10722;DHT22;5412;59.450;18.124;2023-10-13T12:19:43;12.20;99.90
10722;DHT22;5412;59.450;18.124;2023-10-13T12:22:16;12.30;99.90
10722;DHT22;5412;59.450;18.124;2023-10-13T12:24:50;12.40;99.90
10722;DHT22;5412;59.450;18.124;2023-10-13T12:27:19;12.30;99.90
10722;DHT22;5412;59.450;18.124;2023-10-13T12:29:49;12.30;99.90
10722;DHT22;5412;59.450;18.124;2023-10-13T12:32:18;12.50;99.90
10722;DHT22;5412;59.450;18.124;2023-10-13T12:34:49;12.40;99.90
10722;DHT22;5412;59.450;18.124;2023-10-13T12:37:31;12.40;99.90
10722;DHT22;5412;59.450;18.124;2023-10-13T12:40:13;12.40;99.90
10722;DHT22;5412;59.450;18.124;2023-10-13T12:42:58;12.30;99.90
10722;DHT22;5412;59.450;18.124;2023-10-13T12:45:43;12.30;99.90
10722;DHT22;5412;59.450;18.124;2023-10-13T12:48:29;12.30;99.90
10722;DHT22;5412;59.450;18.124;2023-10-13T12:51:13;12.30;99.90
10722;DHT22;5412;59.450;18.124;2023-10-13T12:53:49;12.30;99.90
10722;DHT22;5412;59.450;18.124;2023-10-13T12:56:15;12.20;99.90
10722;DHT22;5412;59.450;18.124;2023-10-13T12:58:42;12.10;99.90
10722;DHT22;5412;59.450;18.124;2023-10-13T13:01:25;12.10;99.90
10722;DHT22;5412;59.450;18.124;2023-10-13T13:03:58;12.00;99.90
10722;DHT22;5412;59.450;18.124;2023-10-13T13:06:27;11.90;99.90
10722;DHT22;5412;59.450;18.124;2023-10-13T13:08:57;12.00;99.90
10722;DHT22;5412;59.450;18.124;2023-10-13T13:11:24;11.90;99.90
10722;DHT22;5412;59.450;18.124;2023-10-13T13:13:50;11.90;99.90
10722;DHT22;5412;59.450;18.124;2023-10-13T13:16:18;11.90;99.90
10722;DHT22;5412;59.450;18.124;2023-10-13T13:18:45;11.90;99.90
10722;DHT22;5412;59.450;18.124;2023-10-13T13:21:11;12.00;99.90
10722;DHT22;5412;59.450;18.124;2023-10-13T13:23:48;12.10;99.90
10722;DHT22;5412;59.450;18.124;2023-10-13T13:26:14;12.00;99.90
10722;DHT22;5412;59.450;18.124;2023-10-13T13:28:45;12.00;99.90
10722;DHT22;5412;59.450;18.124;2023-10-13T13:31:11;11.90;99.90
10722;DHT22;5412;59.450;18.124;2023-10-13T13:33:40;12.00;99.90
10722;DHT22;5412;59.450;18.124;2023-10-13T13:36:12;12.00;99.90
10722;DHT22;5412;59.450;18.124;2023-10-13T13:38:42;11.90;99.90
10722;DHT22;5412;59.450;18.124;2023-10-13T13:41:12;11.80;99.90
10722;DHT22;5412;59.450;18.124;2023-10-13T13:43:45;11.80;99.90
10722;DHT22;5412;59.450;18.124;2023-10-13T13:46:21;11.90;99.90
10722;DHT22;5412;59.450;18.124;2023-10-13T13:48:51;11.80;99.90
10722;DHT22;5412;59.450;18.124;2023-10-13T13:51:23;11.80;99.90
10722;DHT22;5412;59.450;18.124;2023-10-13T13:53:53;11.60;99.90
10722;DHT22;5412;59.450;18.124;2023-10-13T13:56:19;11.60;99.90
10722;DHT22;5412;59.450;18.124;2023-10-13T13:58:49;11.50;99.90
10722;DHT22;5412;59.450;18.124;2023-10-13T14:01:33;11.60;99.90
10722;DHT22;5412;59.450;18.124;2023-10-13T14:04:02;11.60;99.90
10722;DHT22;5412;59.450;18.124;2023-10-13T14:06:28;11.60;99.90
10722;DHT22;5412;59.450;18.124;2023-10-13T14:08:59;11.50;99.90
10722;DHT22;5412;59.450;18.124;2023-10-13T14:11:41;11.40;99.90
10722;DHT22;5412;59.450;18.124;2023-10-13T14:14:26;11.30;99.90
10722;DHT22;5412;59.450;18.124;2023-10-13T14:16:52;11.30;99.90
10722;DHT22;5412;59.450;18.124;2023-10-13T14:19:19;11.30;99.90
10722;DHT22;5412;59.450;18.124;2023-10-13T14:21:53;11.30;99.90
10722;DHT22;5412;59.450;18.124;2023-10-13T14:24:21;11.40;99.90
10722;DHT22;5412;59.450;18.124;2023-10-13T14:27:07;11.50;99.90
10722;DHT22;5412;59.450;18.124;2023-10-13T14:29:35;11.40;99.90
10722;DHT22;5412;59.450;18.124;2023-10-13T14:32:23;11.30;99.90
10722;DHT22;5412;59.450;18.124;2023-10-13T14:34:50;11.20;99.90
10722;DHT22;5412;59.450;18.124;2023-10-13T14:37:23;11.20;99.90
10722;DHT22;5412;59.450;18.124;2023-10-13T14:39:55;11.20;99.90
10722;DHT22;5412;59.450;18.124;2023-10-13T14:42:28;11.20;99.90
10722;DHT22;5412;59.450;18.124;2023-10-13T14:44:54;11.20;99.90
10722;DHT22;5412;59.450;18.124;2023-10-13T14:47:29;11.30;99.90
10722;DHT22;5412;59.450;18.124;2023-10-13T14:49:56;11.60;99.90
10722;DHT22;5412;59.450;18.124;2023-10-13T14:52:25;11.10;99.90
10722;DHT22;5412;59.450;18.124;2023-10-13T14:54:51;11.10;99.90
10722;DHT22;5412;59.450;18.124;2023-10-13T14:57:23;11.10;99.90
10722;DHT22;5412;59.450;18.124;2023-10-13T14:59:55;11.00;99.90
10722;DHT22;5412;59.450;18.124;2023-10-13T15:02:22;10.90;99.90
10722;DHT22;5412;59.450;18.124;2023-10-13T15:04:48;10.80;99.90
10722;DHT22;5412;59.450;18.124;2023-10-13T15:07:15;10.80;99.90
10722;DHT22;5412;59.450;18.124;2023-10-13T15:09:42;10.80;99.90
10722;DHT22;5412;59.450;18.124;2023-10-13T15:12:09;10.80;99.90
10722;DHT22;5412;59.450;18.124;2023-10-13T15:14:40;10.70;99.90
10722;DHT22;5412;59.450;18.124;2023-10-13T15:17:09;10.60;99.90
10722;DHT22;5412;59.450;18.124;2023-10-13T15:19:36;10.60;99.90
10722;DHT22;5412;59.450;18.124;2023-10-13T15:22:04;10.60;99.90
10722;DHT22;5412;59.450;18.124;2023-10-13T15:24:38;10.60;99.90
10722;DHT22;5412;59.450;18.124;2023-10-13T15:27:25;10.70;99.90
10722;DHT22;5412;59.450;18.124;2023-10-13T15:29:54;10.70;99.90
10722;DHT22;5412;59.450;18.124;2023-10-13T15:32:20;10.70;99.90
10722;DHT22;5412;59.450;18.124;2023-10-13T15:35:04;10.70;99.90
10722;DHT22;5412;59.450;18.124;2023-10-13T15:37:30;10.70;99.90
10722;DHT22;5412;59.450;18.124;2023-10-13T15:39:56;10.70;99.90
10722;DHT22;5412;59.450;18.124;2023-10-13T15:42:23;10.60;99.90
10722;DHT22;5412;59.450;18.124;2023-10-13T15:44:49;10.70;99.90
10722;DHT22;5412;59.450;18.124;2023-10-13T15:47:15;10.80;99.90
10722;DHT22;5412;59.450;18.124;2023-10-13T15:49:41;10.70;99.90
10722;DHT22;5412;59.450;18.124;2023-10-13T15:52:08;10.90;99.90
10722;DHT22;5412;59.450;18.124;2023-10-13T15:54:35;10.80;99.90
10722;DHT22;5412;59.450;18.124;2023-10-13T15:57:01;10.60;99.90
10722;DHT22;5412;59.450;18.124;2023-10-13T15:59:26;10.60;99.90
10722;DHT22;5412;59.450;18.124;2023-10-13T16:01:52;10.70;99.90
10722;DHT22;5412;59.450;18.124;2023-10-13T16:04:23;10.40;99.90
10722;DHT22;5412;59.450;18.124;2023-10-13T16:06:49;10.30;99.90
10722;DHT22;5412;59.450;18.124;2023-10-13T16:09:17;10.30;99.90
10722;DHT22;5412;59.450;18.124;2023-10-13T16:11:53;10.30;99.90
10722;DHT22;5412;59.450;18.124;2023-10-13T16:14:19;10.30;99.90
10722;DHT22;5412;59.450;18.124;2023-10-13T16:16:46;10.30;99.90
10722;DHT22;5412;59.450;18.124;2023-10-13T16:19:15;10.20;99.90
10722;DHT22;5412;59.450;18.124;2023-10-13T16:21:47;10.10;99.90
10722;DHT22;5412;59.450;18.124;2023-10-13T16:24:13;10.10;99.90
10722;DHT22;5412;59.450;18.124;2023-10-13T16:26:46;10.00;99.90
10722;DHT22;5412;59.450;18.124;2023-10-13T16:29:15;10.00;99.90
10722;DHT22;5412;59.450;18.124;2023-10-13T16:31:41;9.90;99.90
10722;DHT22;5412;59.450;18.124;2023-10-13T16:34:15;9.90;99.90
10722;DHT22;5412;59.450;18.124;2023-10-13T16:36:42;9.90;99.90
10722;DHT22;5412;59.450;18.124;2023-10-13T16:39:09;10.00;99.90
10722;DHT22;5412;59.450;18.124;2023-10-13T16:41:35;9.90;99.90
10722;DHT22;5412;59.450;18.124;2023-10-13T16:44:01;9.90;99.90
10722;DHT22;5412;59.450;18.124;2023-10-13T16:46:32;9.90;99.90
10722;DHT22;5412;59.450;18.124;2023-10-13T16:48:59;9.90;99.90